Time;durP1;ratioP1;P1;durP2;ratioP2;P2;SDS_P1;SDS_P2;PMS_P1;PMS_P2;Temp;Humidity;BMP_temperature;BMP_pressure;BME280_temperature;BME280_humidity;BME280_pressure;Samples;Min_cycle;Max_cycle;Signal;HPM_P1;HPM_P2
2024/01/07 00:01:54;;;;;;;5.75;3.03;;;;;;;;;;4956811;28;20377;-83
2024/01/07 00:04:20;;;;;;;8.30;3.80;;;;;;;;;;4964097;28;20026;-82
2024/01/07 00:06:46;;;;;;;9.98;4.28;;;;;;;;;;4980068;28;20153;-84
2024/01/07 00:09:12;;;;;;;9.65;4.03;;;;;;;;;;4965825;28;20522;-81
2024/01/07 00:11:38;;;;;;;6.55;3.55;;;;;;;;;;4965514;28;20031;-81
2024/01/07 00:14:04;;;;;;;8.13;3.70;;;;;;;;;;4981583;28;20498;-81
2024/01/07 00:16:30;;;;;;;12.57;4.80;;;;;;;;;;4965182;28;20036;-81
2024/01/07 00:18:55;;;;;;;11.77;4.47;;;;;;;;;;4983712;28;20110;-83
2024/01/07 00:21:21;;;;;;;11.88;4.65;;;;;;;;;;4984245;28;20481;-83
2024/01/07 00:23:46;;;;;;;13.75;5.80;;;;;;;;;;4982047;28;20031;-83
2024/01/07 00:26:12;;;;;;;9.45;5.15;;;;;;;;;;4977233;28;20045;-83
2024/01/07 00:28:37;;;;;;;7.57;4.80;;;;;;;;;;4977806;28;20090;-82
2024/01/07 00:31:03;;;;;;;10.05;4.88;;;;;;;;;;4964739;28;20031;-83
2024/01/07 00:33:31;;;;;;;9.40;4.88;;;;;;;;;;4981258;28;20097;-82
2024/01/07 00:35:56;;;;;;;9.95;4.43;;;;;;;;;;4979175;28;20519;-82
2024/01/07 00:38:22;;;;;;;8.38;4.53;;;;;;;;;;4982177;28;20034;-82
2024/01/07 00:40:48;;;;;;;8.10;4.35;;;;;;;;;;4983131;28;20503;-82
2024/01/07 00:43:13;;;;;;;8.48;5.25;;;;;;;;;;4987372;28;20030;-80
2024/01/07 00:45:39;;;;;;;6.32;3.90;;;;;;;;;;4983586;28;20047;-80
2024/01/07 00:48:05;;;;;;;4.82;2.90;;;;;;;;;;4969913;28;20045;-81
2024/01/07 00:50:30;;;;;;;3.95;2.75;;;;;;;;;;4980273;28;20558;-81
2024/01/07 00:52:56;;;;;;;4.60;2.85;;;;;;;;;;4984910;28;20038;-80
2024/01/07 00:55:23;;;;;;;3.75;2.45;;;;;;;;;;4982196;28;20073;-82
2024/01/07 00:57:49;;;;;;;7.30;4.00;;;;;;;;;;4979445;28;20054;-83
2024/01/07 01:00:15;;;;;;;4.88;2.78;;;;;;;;;;4965424;28;20066;-84
2024/01/07 01:02:41;;;;;;;5.55;2.70;;;;;;;;;;4979271;28;20036;-83
2024/01/07 01:05:07;;;;;;;6.20;2.95;;;;;;;;;;4948012;28;20113;-82
2024/01/07 01:07:32;;;;;;;6.90;2.92;;;;;;;;;;4982513;28;20089;-80
2024/01/07 01:09:58;;;;;;;9.38;4.07;;;;;;;;;;4980983;28;20516;-82
2024/01/07 01:12:23;;;;;;;7.82;3.80;;;;;;;;;;4963161;28;20034;-82
2024/01/07 01:14:49;;;;;;;8.48;4.63;;;;;;;;;;4987995;28;20042;-81
2024/01/07 01:17:15;;;;;;;11.23;4.30;;;;;;;;;;4985003;28;20029;-84
2024/01/07 01:19:40;;;;;;;10.70;3.97;;;;;;;;;;4982612;28;20507;-83
2024/01/07 01:22:06;;;;;;;3.95;2.33;;;;;;;;;;4988964;28;20022;-80
2024/01/07 01:24:31;;;;;;;4.28;2.20;;;;;;;;;;4970126;28;20031;-83
2024/01/07 01:26:57;;;;;;;5.15;2.58;;;;;;;;;;4986930;28;20455;-83
2024/01/07 01:29:22;;;;;;;4.68;2.50;;;;;;;;;;4985200;28;20034;-83
2024/01/07 01:31:48;;;;;;;5.22;2.55;;;;;;;;;;4982110;28;20086;-84
2024/01/07 01:34:13;;;;;;;4.45;2.65;;;;;;;;;;4970248;28;20487;-82
2024/01/07 01:36:39;;;;;;;3.72;2.17;;;;;;;;;;4982687;28;20067;-83
2024/01/07 01:39:05;;;;;;;4.53;2.45;;;;;;;;;;4982419;28;20065;-82
2024/01/07 01:41:30;;;;;;;4.53;2.55;;;;;;;;;;4983812;28;20086;-82
2024/01/07 01:43:58;;;;;;;7.30;2.72;;;;;;;;;;4982022;28;20081;-81
2024/01/07 01:46:24;;;;;;;6.85;3.05;;;;;;;;;;4968063;28;20038;-81
2024/01/07 01:48:51;;;;;;;6.85;2.92;;;;;;;;;;4987803;28;20462;-81
2024/01/07 01:51:17;;;;;;;3.30;1.92;;;;;;;;;;4977220;28;20026;-81
2024/01/07 01:53:42;;;;;;;5.07;2.30;;;;;;;;;;4968087;28;20035;-83
2024/01/07 01:56:08;;;;;;;3.58;2.00;;;;;;;;;;4987320;28;20035;-83
2024/01/07 01:58:34;;;;;;;2.67;1.55;;;;;;;;;;4965045;28;20035;-82
2024/01/07 02:01:00;;;;;;;1.75;1.00;;;;;;;;;;4985279;28;20030;-81
2024/01/07 02:03:25;;;;;;;2.10;1.20;;;;;;;;;;4986104;28;20141;-82
2024/01/07 02:05:52;;;;;;;1.50;1.00;;;;;;;;;;4974965;28;20038;-81
2024/01/07 02:08:19;;;;;;;2.30;1.38;;;;;;;;;;4984014;28;20113;-82
2024/01/07 02:10:44;;;;;;;1.90;1.35;;;;;;;;;;4969672;28;20518;-83
2024/01/07 02:13:10;;;;;;;1.60;1.00;;;;;;;;;;4967503;28;20018;-82
2024/01/07 02:15:36;;;;;;;2.40;1.10;;;;;;;;;;4985228;28;20120;-82
2024/01/07 02:18:01;;;;;;;0.95;0.82;;;;;;;;;;4966021;28;20042;-82
2024/01/07 02:20:27;;;;;;;1.33;0.80;;;;;;;;;;4955827;28;20096;-81
2024/01/07 02:22:53;;;;;;;0.60;0.60;;;;;;;;;;4969526;28;20034;-82
2024/01/07 02:25:19;;;;;;;1.10;0.70;;;;;;;;;;4966317;28;20022;-81
2024/01/07 02:27:44;;;;;;;0.93;0.70;;;;;;;;;;4980387;28;20033;-82
2024/01/07 02:30:10;;;;;;;0.95;0.70;;;;;;;;;;4985897;28;20110;-84
2024/01/07 02:32:37;;;;;;;0.63;0.50;;;;;;;;;;4981959;28;20038;-83
2024/01/07 02:35:03;;;;;;;0.47;0.47;;;;;;;;;;4969199;28;20053;-81
2024/01/07 02:37:29;;;;;;;0.40;0.40;;;;;;;;;;4983679;28;20035;-81
2024/01/07 02:39:54;;;;;;;0.60;0.60;;;;;;;;;;4957654;28;20026;-81
2024/01/07 02:42:20;;;;;;;0.50;0.50;;;;;;;;;;4967254;28;20556;-81
2024/01/07 02:44:45;;;;;;;0.60;0.60;;;;;;;;;;4985640;28;20030;-81
2024/01/07 02:47:11;;;;;;;0.57;0.57;;;;;;;;;;4963653;28;20043;-83
2024/01/07 02:49:36;;;;;;;0.57;0.57;;;;;;;;;;4979875;28;20049;-83
2024/01/07 02:52:02;;;;;;;0.60;0.60;;;;;;;;;;4983951;28;20127;-83
2024/01/07 02:54:27;;;;;;;2.05;0.60;;;;;;;;;;4983492;28;20045;-81
2024/01/07 02:56:53;;;;;;;0.40;0.40;;;;;;;;;;4984632;28;20027;-82
2024/01/07 02:59:18;;;;;;;0.60;0.60;;;;;;;;;;4985149;28;20480;-81
2024/01/07 03:01:44;;;;;;;0.50;0.50;;;;;;;;;;4984209;28;20051;-81
2024/01/07 03:04:15;;;;;;;0.80;0.50;;;;;;;;;;4985244;28;20407;-82
2024/01/07 03:06:40;;;;;;;0.63;0.60;;;;;;;;;;4967373;28;20035;-83
2024/01/07 03:09:07;;;;;;;0.60;0.60;;;;;;;;;;4983844;28;20030;-83
2024/01/07 03:11:32;;;;;;;0.52;0.52;;;;;;;;;;4977483;28;20042;-82
2024/01/07 03:13:58;;;;;;;0.55;0.55;;;;;;;;;;4982418;28;20093;-81
2024/01/07 03:16:25;;;;;;;1.65;0.82;;;;;;;;;;4981652;28;20030;-83
2024/01/07 03:18:51;;;;;;;1.63;0.95;;;;;;;;;;4985263;28;20105;-82
2024/01/07 03:21:22;;;;;;;1.45;1.10;;;;;;;;;;4978695;28;20031;-82
2024/01/07 03:23:49;;;;;;;1.50;1.15;;;;;;;;;;4981992;28;20031;-83
2024/01/07 03:26:15;;;;;;;1.05;0.95;;;;;;;;;;4983113;28;20031;-83
2024/01/07 03:28:41;;;;;;;1.40;1.10;;;;;;;;;;4961997;28;20039;-83
2024/01/07 03:31:10;;;;;;;1.13;0.95;;;;;;;;;;4981879;28;20038;-82
2024/01/07 03:33:37;;;;;;;2.15;1.15;;;;;;;;;;4979238;28;20041;-81
2024/01/07 03:36:07;;;;;;;1.38;1.00;;;;;;;;;;4983242;28;20480;-81
2024/01/07 03:38:33;;;;;;;1.30;1.05;;;;;;;;;;4981453;28;20559;-81
2024/01/07 03:40:58;;;;;;;1.48;1.00;;;;;;;;;;4981838;28;20123;-81
2024/01/07 03:43:24;;;;;;;2.00;1.20;;;;;;;;;;4982109;28;20400;-81
2024/01/07 03:45:49;;;;;;;1.40;1.10;;;;;;;;;;4981328;28;20048;-81
2024/01/07 03:48:15;;;;;;;1.48;1.10;;;;;;;;;;4980713;28;20027;-83
2024/01/07 03:50:40;;;;;;;1.35;0.95;;;;;;;;;;4981315;28;20471;-84
2024/01/07 03:53:06;;;;;;;2.08;1.20;;;;;;;;;;4962801;28;20030;-81
2024/01/07 03:55:31;;;;;;;0.90;0.90;;;;;;;;;;4977435;28;20448;-82
2024/01/07 03:57:57;;;;;;;1.30;1.15;;;;;;;;;;4983236;28;20034;-82
2024/01/07 04:00:22;;;;;;;1.70;1.27;;;;;;;;;;4984611;28;20484;-82
2024/01/07 04:02:48;;;;;;;1.45;1.13;;;;;;;;;;4975948;28;20090;-83
2024/01/07 04:05:14;;;;;;;1.50;1.13;;;;;;;;;;4986190;28;20399;-83
2024/01/07 04:07:40;;;;;;;1.50;1.20;;;;;;;;;;4980323;28;20034;-83
2024/01/07 04:10:06;;;;;;;1.13;0.90;;;;;;;;;;4983500;28;20026;-81
2024/01/07 04:12:33;;;;;;;1.00;0.80;;;;;;;;;;4980302;28;20486;-83
2024/01/07 04:14:58;;;;;;;1.30;1.00;;;;;;;;;;4975378;28;20039;-83
2024/01/07 04:17:24;;;;;;;1.15;0.90;;;;;;;;;;4977999;28;20042;-83
2024/01/07 04:19:49;;;;;;;1.80;0.93;;;;;;;;;;4980848;28;20046;-82
2024/01/07 04:22:15;;;;;;;0.82;0.70;;;;;;;;;;4985763;28;20037;-83
2024/01/07 04:24:41;;;;;;;0.70;0.70;;;;;;;;;;4963156;28;20507;-83
2024/01/07 04:27:07;;;;;;;0.60;0.60;;;;;;;;;;4969559;28;20027;-80
2024/01/07 04:29:32;;;;;;;0.50;0.50;;;;;;;;;;4979404;28;20026;-81
2024/01/07 04:31:58;;;;;;;0.63;0.52;;;;;;;;;;4985182;28;20454;-81
2024/01/07 04:34:24;;;;;;;0.57;0.52;;;;;;;;;;4967258;28;20027;-83
2024/01/07 04:36:50;;;;;;;0.70;0.60;;;;;;;;;;4978059;28;20026;-81
2024/01/07 04:39:15;;;;;;;0.43;0.43;;;;;;;;;;4982599;28;20041;-84
2024/01/07 04:41:41;;;;;;;0.60;0.60;;;;;;;;;;4981153;28;20043;-83
2024/01/07 04:44:06;;;;;;;1.15;1.00;;;;;;;;;;4983384;28;20403;-82
2024/01/07 04:46:38;;;;;;;0.95;0.80;;;;;;;;;;4977457;28;20048;-80
2024/01/07 04:49:05;;;;;;;0.70;0.70;;;;;;;;;;4980802;28;20030;-81
2024/01/07 04:51:31;;;;;;;0.60;0.60;;;;;;;;;;4980091;28;20038;-80
2024/01/07 04:53:57;;;;;;;0.50;0.50;;;;;;;;;;4982654;28;20038;-83
2024/01/07 04:56:22;;;;;;;0.63;0.60;;;;;;;;;;4963559;28;20089;-80
2024/01/07 04:58:48;;;;;;;0.82;0.60;;;;;;;;;;4977785;28;20092;-81
2024/01/07 05:01:13;;;;;;;0.65;0.65;;;;;;;;;;4980852;28;20488;-83
2024/01/07 05:03:39;;;;;;;0.90;0.77;;;;;;;;;;4961138;28;20135;-83
2024/01/07 05:06:05;;;;;;;1.17;1.00;;;;;;;;;;4982181;28;20061;-81
2024/01/07 05:08:30;;;;;;;1.60;1.05;;;;;;;;;;4962178;28;20041;-81
2024/01/07 05:10:56;;;;;;;1.25;0.90;;;;;;;;;;4979538;28;20026;-81
2024/01/07 05:13:22;;;;;;;1.90;0.70;;;;;;;;;;4981651;28;20540;-82
2024/01/07 05:15:53;;;;;;;0.88;0.80;;;;;;;;;;4984397;28;20105;-82
2024/01/07 05:18:23;;;;;;;0.80;0.80;;;;;;;;;;4980187;28;20442;-83
2024/01/07 05:20:49;;;;;;;1.23;0.70;;;;;;;;;;4963967;28;20039;-84
2024/01/07 05:23:15;;;;;;;0.70;0.70;;;;;;;;;;4981239;28;20034;-83
2024/01/07 05:25:43;;;;;;;0.63;0.63;;;;;;;;;;4977712;28;20515;-81
2024/01/07 05:28:08;;;;;;;0.60;0.60;;;;;;;;;;4964270;28;20071;-82
2024/01/07 05:30:34;;;;;;;0.70;0.70;;;;;;;;;;4980745;28;20035;-83
2024/01/07 05:32:59;;;;;;;1.42;0.70;;;;;;;;;;4979899;28;20412;-82
2024/01/07 05:35:25;;;;;;;0.93;0.90;;;;;;;;;;4980086;28;20027;-81
2024/01/07 05:37:50;;;;;;;0.75;0.60;;;;;;;;;;4982352;28;20034;-81
2024/01/07 05:40:16;;;;;;;0.70;0.70;;;;;;;;;;4976238;28;20026;-84
2024/01/07 05:42:41;;;;;;;0.80;0.80;;;;;;;;;;4976479;28;20493;-83
2024/01/07 05:45:07;;;;;;;0.90;0.77;;;;;;;;;;4965823;28;20037;-83
2024/01/07 05:47:32;;;;;;;0.88;0.80;;;;;;;;;;4976807;28;20039;-82
2024/01/07 05:49:58;;;;;;;1.17;0.70;;;;;;;;;;4981788;28;20026;-83
2024/01/07 05:52:24;;;;;;;0.93;0.70;;;;;;;;;;4980162;28;20110;-82
2024/01/07 05:54:49;;;;;;;1.10;0.80;;;;;;;;;;4981410;28;20035;-83
2024/01/07 05:57:15;;;;;;;1.00;0.90;;;;;;;;;;4984502;28;20050;-82
2024/01/07 05:59:40;;;;;;;1.00;0.90;;;;;;;;;;4983387;28;20462;-83
2024/01/07 06:02:06;;;;;;;1.48;0.82;;;;;;;;;;4984161;28;20018;-81
2024/01/07 06:04:31;;;;;;;1.00;0.90;;;;;;;;;;4983891;28;20558;-81
2024/01/07 06:06:56;;;;;;;1.15;0.93;;;;;;;;;;4982659;28;20058;-83
2024/01/07 06:09:22;;;;;;;1.17;1.02;;;;;;;;;;4980305;28;20035;-83
2024/01/07 06:11:47;;;;;;;1.25;1.00;;;;;;;;;;4983261;28;20404;-82
2024/01/07 06:14:13;;;;;;;1.50;1.00;;;;;;;;;;4982103;28;20030;-82
2024/01/07 06:16:39;;;;;;;1.17;1.00;;;;;;;;;;4981883;28;20407;-82
2024/01/07 06:19:04;;;;;;;1.17;1.02;;;;;;;;;;4982749;28;20042;-81
2024/01/07 06:21:30;;;;;;;1.00;0.90;;;;;;;;;;4964108;28;20061;-82
2024/01/07 06:23:55;;;;;;;1.40;1.10;;;;;;;;;;4965148;28;20026;-81
2024/01/07 06:26:21;;;;;;;1.05;0.95;;;;;;;;;;4967766;28;20403;-81
2024/01/07 06:28:46;;;;;;;1.55;1.27;;;;;;;;;;4994662;28;20091;-82
2024/01/07 06:31:11;;;;;;;1.30;1.02;;;;;;;;;;4997105;28;20037;-82
2024/01/07 06:33:37;;;;;;;1.10;1.00;;;;;;;;;;4961405;28;20034;-83
2024/01/07 06:36:04;;;;;;;1.15;1.00;;;;;;;;;;4985492;28;20550;-82
2024/01/07 06:38:29;;;;;;;1.15;0.90;;;;;;;;;;4966399;28;20026;-82
2024/01/07 06:40:55;;;;;;;1.10;1.00;;;;;;;;;;4984104;28;20416;-82
2024/01/07 06:43:21;;;;;;;1.15;1.00;;;;;;;;;;4969131;28;20420;-81
2024/01/07 06:45:46;;;;;;;0.98;0.88;;;;;;;;;;4957314;28;20041;-80
2024/01/07 06:48:12;;;;;;;1.42;1.10;;;;;;;;;;4952030;28;20038;-81
2024/01/07 06:50:37;;;;;;;1.75;0.98;;;;;;;;;;4979456;28;20043;-83
2024/01/07 06:53:03;;;;;;;1.10;1.00;;;;;;;;;;4983476;28;20030;-82
2024/01/07 06:55:28;;;;;;;1.20;1.00;;;;;;;;;;4981857;28;20665;-81
2024/01/07 06:57:54;;;;;;;1.58;1.00;;;;;;;;;;4981195;28;20516;-81
2024/01/07 07:00:20;;;;;;;1.13;1.00;;;;;;;;;;4987559;28;20026;-82
2024/01/07 07:02:45;;;;;;;1.10;1.00;;;;;;;;;;4968153;28;20057;-83
2024/01/07 07:05:11;;;;;;;1.70;1.17;;;;;;;;;;4980886;28;20685;-83
2024/01/07 07:07:36;;;;;;;1.75;1.20;;;;;;;;;;4984033;28;20117;-83
2024/01/07 07:10:02;;;;;;;1.60;1.00;;;;;;;;;;4982476;28;20018;-82
2024/01/07 07:12:27;;;;;;;1.30;1.10;;;;;;;;;;4976129;28;20089;-81
2024/01/07 07:14:53;;;;;;;1.25;0.98;;;;;;;;;;4985992;28;20483;-81
2024/01/07 07:17:18;;;;;;;2.33;1.40;;;;;;;;;;4985999;28;20035;-81
2024/01/07 07:19:44;;;;;;;1.70;1.30;;;;;;;;;;4982699;28;20065;-81
2024/01/07 07:22:09;;;;;;;1.50;1.33;;;;;;;;;;4969130;28;20596;-81
2024/01/07 07:24:35;;;;;;;2.53;1.30;;;;;;;;;;4982759;28;20049;-81
2024/01/07 07:27:00;;;;;;;1.25;1.10;;;;;;;;;;4981162;28;20434;-80
2024/01/07 07:29:26;;;;;;;2.58;1.40;;;;;;;;;;4961464;28;20037;-80
2024/01/07 07:31:51;;;;;;;1.75;1.35;;;;;;;;;;4983936;28;20127;-81
2024/01/07 07:34:17;;;;;;;1.67;1.30;;;;;;;;;;4959095;28;20041;-80
2024/01/07 07:36:44;;;;;;;2.15;1.50;;;;;;;;;;4964115;28;20042;-81
2024/01/07 07:39:10;;;;;;;3.40;2.03;;;;;;;;;;4965800;28;20088;-82
2024/01/07 07:41:36;;;;;;;2.88;2.00;;;;;;;;;;4980127;28;20113;-83
2024/01/07 07:44:01;;;;;;;3.05;2.03;;;;;;;;;;4979380;28;20597;-83
2024/01/07 07:46:26;;;;;;;2.50;1.63;;;;;;;;;;4963503;28;20508;-86
2024/01/07 07:48:52;;;;;;;1.92;1.30;;;;;;;;;;4967883;28;20050;-83
2024/01/07 07:51:17;;;;;;;2.13;1.50;;;;;;;;;;4981004;28;20558;-81
2024/01/07 07:53:43;;;;;;;1.92;1.50;;;;;;;;;;4978206;28;20110;-83
2024/01/07 07:56:08;;;;;;;1.80;1.33;;;;;;;;;;4979192;28;20486;-81
2024/01/07 07:58:34;;;;;;;2.42;1.60;;;;;;;;;;4978758;28;20038;-83
2024/01/07 08:00:59;;;;;;;2.22;1.48;;;;;;;;;;4983170;28;20034;-82
2024/01/07 08:03:25;;;;;;;1.52;1.20;;;;;;;;;;4982997;28;20031;-84
2024/01/07 08:05:50;;;;;;;1.80;1.42;;;;;;;;;;4979102;28;20081;-82
2024/01/07 08:08:18;;;;;;;2.05;1.40;;;;;;;;;;4980674;28;20034;-82
2024/01/07 08:10:44;;;;;;;1.40;1.20;;;;;;;;;;4964813;28;20042;-81
2024/01/07 08:13:09;;;;;;;1.80;1.50;;;;;;;;;;4977873;28;20606;-83
2024/01/07 08:15:35;;;;;;;2.17;1.67;;;;;;;;;;4977321;28;20054;-82
2024/01/07 08:18:02;;;;;;;2.80;1.38;;;;;;;;;;4985577;28;20431;-82
2024/01/07 08:20:27;;;;;;;2.05;1.52;;;;;;;;;;4981558;28;20046;-82
2024/01/07 08:22:53;;;;;;;1.73;1.20;;;;;;;;;;4983240;28;20439;-80
2024/01/07 08:25:18;;;;;;;1.63;1.30;;;;;;;;;;4977563;28;20645;-81
2024/01/07 08:27:45;;;;;;;2.35;1.30;;;;;;;;;;4979382;28;20500;-80
2024/01/07 08:30:13;;;;;;;2.22;1.40;;;;;;;;;;4991641;28;20048;-81
2024/01/07 08:32:39;;;;;;;1.60;1.33;;;;;;;;;;4982348;28;20051;-81
2024/01/07 08:35:05;;;;;;;1.95;1.50;;;;;;;;;;4977840;28;20030;-81
2024/01/07 08:37:30;;;;;;;1.83;1.52;;;;;;;;;;4977838;28;20137;-80
2024/01/07 08:39:56;;;;;;;1.95;1.42;;;;;;;;;;4977962;28;20033;-82
2024/01/07 08:42:22;;;;;;;2.72;1.60;;;;;;;;;;4983126;28;20476;-81
2024/01/07 08:44:47;;;;;;;1.83;1.42;;;;;;;;;;4955688;28;20084;-80
2024/01/07 08:47:13;;;;;;;2.53;1.40;;;;;;;;;;4976355;28;20042;-80
2024/01/07 08:49:38;;;;;;;1.85;1.42;;;;;;;;;;4978542;28;20050;-81
2024/01/07 08:52:05;;;;;;;1.77;1.10;;;;;;;;;;4977868;28;20500;-80
2024/01/07 08:54:30;;;;;;;2.08;1.40;;;;;;;;;;4972176;28;20125;-81
2024/01/07 08:56:56;;;;;;;3.28;1.30;;;;;;;;;;4981513;28;20054;-83
2024/01/07 08:59:21;;;;;;;2.42;1.40;;;;;;;;;;4976361;28;20034;-81
2024/01/07 09:01:47;;;;;;;1.92;1.50;;;;;;;;;;4983738;28;20060;-80
2024/01/07 09:04:12;;;;;;;2.42;1.45;;;;;;;;;;4981925;28;20057;-81
2024/01/07 09:06:38;;;;;;;1.80;1.50;;;;;;;;;;4980798;28;20408;-81
2024/01/07 09:09:06;;;;;;;2.25;1.50;;;;;;;;;;4975890;28;20031;-80
2024/01/07 09:11:32;;;;;;;2.63;1.60;;;;;;;;;;4964536;28;20177;-82
2024/01/07 09:13:57;;;;;;;2.53;1.70;;;;;;;;;;4981249;28;20062;-83
2024/01/07 09:16:23;;;;;;;3.38;1.65;;;;;;;;;;4983114;28;20480;-82
2024/01/07 09:18:48;;;;;;;2.33;1.48;;;;;;;;;;4981818;28;20023;-82
2024/01/07 09:21:15;;;;;;;2.10;1.60;;;;;;;;;;4977673;28;20403;-83
2024/01/07 09:23:41;;;;;;;3.28;1.70;;;;;;;;;;4967620;28;20038;-80
2024/01/07 09:26:07;;;;;;;2.17;1.60;;;;;;;;;;4967069;28;20105;-82
2024/01/07 09:28:32;;;;;;;2.30;1.70;;;;;;;;;;4965755;28;20125;-84
2024/01/07 09:30:58;;;;;;;2.53;1.70;;;;;;;;;;4979033;28;20476;-85
2024/01/07 09:33:23;;;;;;;2.92;1.70;;;;;;;;;;4965464;28;20046;-83
2024/01/07 09:35:54;;;;;;;2.67;1.88;;;;;;;;;;4983330;28;20020;-83
2024/01/07 09:38:19;;;;;;;5.90;3.03;;;;;;;;;;4981514;28;20031;-84
2024/01/07 09:40:45;;;;;;;3.72;1.98;;;;;;;;;;4980393;28;20400;-82
2024/01/07 09:43:11;;;;;;;3.47;2.05;;;;;;;;;;4984330;28;20041;-81
2024/01/07 09:45:39;;;;;;;10.65;8.10;;;;;;;;;;4981568;28;20031;-83
2024/01/07 09:48:05;;;;;;;6.18;5.10;;;;;;;;;;4983139;28;20416;-82
2024/01/07 09:50:30;;;;;;;5.05;3.85;;;;;;;;;;4984698;28;20047;-82
2024/01/07 09:53:01;;;;;;;6.55;4.07;;;;;;;;;;4981201;28;20037;-82
2024/01/07 09:55:35;;;;;;;8.75;6.22;;;;;;;;;;4986529;28;20026;-80
2024/01/07 09:58:00;;;;;;;5.57;3.75;;;;;;;;;;4982215;28;20044;-82
2024/01/07 10:00:27;;;;;;;4.10;3.00;;;;;;;;;;4983737;28;20129;-83
2024/01/07 10:02:54;;;;;;;4.85;3.15;;;;;;;;;;4985835;28;20118;-81
2024/01/07 10:05:19;;;;;;;5.60;3.10;;;;;;;;;;4983186;28;20041;-81
2024/01/07 10:07:44;;;;;;;4.05;2.80;;;;;;;;;;4981717;28;20027;-82
2024/01/07 10:10:17;;;;;;;3.55;2.40;;;;;;;;;;4984006;28;20500;-82
2024/01/07 10:12:46;;;;;;;2.58;1.98;;;;;;;;;;4978911;28;20026;-82
2024/01/07 10:15:12;;;;;;;2.42;1.83;;;;;;;;;;4955477;28;20031;-82
2024/01/07 10:17:39;;;;;;;2.70;2.08;;;;;;;;;;4978155;28;20443;-82
2024/01/07 10:20:09;;;;;;;2.40;1.88;;;;;;;;;;4982812;28;20057;-82
2024/01/07 10:22:37;;;;;;;2.58;1.88;;;;;;;;;;4964248;28;20094;-82
2024/01/07 10:25:03;;;;;;;2.50;1.90;;;;;;;;;;4979117;28;20053;-83
2024/01/07 10:27:28;;;;;;;2.58;1.90;;;;;;;;;;4981195;28;20466;-81
2024/01/07 10:29:55;;;;;;;2.83;1.95;;;;;;;;;;4984479;28;20027;-81
2024/01/07 10:32:20;;;;;;;3.00;2.08;;;;;;;;;;4980858;28;20046;-81
2024/01/07 10:34:47;;;;;;;3.03;1.90;;;;;;;;;;4980180;28;20050;-80
2024/01/07 10:37:13;;;;;;;2.58;1.95;;;;;;;;;;4985410;28;20218;-81
2024/01/07 10:39:38;;;;;;;2.42;1.80;;;;;;;;;;4976841;28;20038;-81
2024/01/07 10:42:04;;;;;;;2.65;1.83;;;;;;;;;;4985481;28;20021;-83
2024/01/07 10:44:31;;;;;;;2.92;1.92;;;;;;;;;;4982548;28;20026;-80
2024/01/07 10:46:58;;;;;;;2.92;1.92;;;;;;;;;;4964322;28;20141;-82
2024/01/07 10:49:25;;;;;;;2.80;1.95;;;;;;;;;;4983255;28;20046;-82
2024/01/07 10:52:11;;;;;;;2.72;2.05;;;;;;;;;;4980436;28;20178;-81
2024/01/07 10:54:37;;;;;;;3.53;2.35;;;;;;;;;;4978584;28;20046;-81
2024/01/07 10:57:12;;;;;;;3.63;2.40;;;;;;;;;;4965719;28;20031;-81
2024/01/07 10:59:38;;;;;;;4.05;2.63;;;;;;;;;;4983154;28;20089;-80
2024/01/07 11:02:04;;;;;;;4.68;2.67;;;;;;;;;;4983245;28;20030;-80
2024/01/07 11:04:42;;;;;;;8.02;3.90;;;;;;;;;;4980932;28;20065;-80
2024/01/07 11:07:22;;;;;;;4.22;2.53;;;;;;;;;;4983737;28;20038;-81
2024/01/07 11:09:57;;;;;;;3.60;2.35;;;;;;;;;;4992376;28;20031;-81
2024/01/07 11:12:23;;;;;;;3.55;2.40;;;;;;;;;;4996062;28;20037;-81
2024/01/07 11:14:52;;;;;;;8.02;3.53;;;;;;;;;;4992234;28;20043;-84
2024/01/07 11:17:40;;;;;;;4.15;2.67;;;;;;;;;;4983173;28;20096;-83
2024/01/07 11:20:07;;;;;;;6.90;3.40;;;;;;;;;;4983238;28;20046;-82
2024/01/07 11:22:32;;;;;;;13.48;6.10;;;;;;;;;;4977848;28;20408;-81
2024/01/07 11:24:59;;;;;;;5.72;3.30;;;;;;;;;;4981751;28;20038;-82
2024/01/07 11:27:28;;;;;;;4.57;2.88;;;;;;;;;;4979623;28;20031;-81
2024/01/07 11:29:58;;;;;;;4.82;3.13;;;;;;;;;;4982410;28;20048;-81
2024/01/07 11:32:28;;;;;;;5.60;3.88;;;;;;;;;;4982561;28;20376;-82
2024/01/07 11:34:56;;;;;;;5.55;3.28;;;;;;;;;;4980538;28;20117;-82
2024/01/07 11:37:22;;;;;;;5.95;3.13;;;;;;;;;;4982908;28;20059;-81
2024/01/07 11:39:56;;;;;;;5.00;2.90;;;;;;;;;;4979202;28;20063;-82
2024/01/07 11:42:22;;;;;;;3.65;2.97;;;;;;;;;;4979253;28;20376;-81
2024/01/07 11:44:55;;;;;;;5.03;3.33;;;;;;;;;;4977789;28;20082;-80
2024/01/07 11:47:22;;;;;;;16.30;7.13;;;;;;;;;;4981805;28;20062;-82
2024/01/07 11:49:51;;;;;;;6.18;3.58;;;;;;;;;;4965393;28;20015;-80
2024/01/07 11:52:18;;;;;;;6.70;4.00;;;;;;;;;;4983857;28;20045;-80
2024/01/07 11:54:43;;;;;;;14.02;6.78;;;;;;;;;;4987927;28;20037;-83
2024/01/07 11:57:10;;;;;;;11.68;5.75;;;;;;;;;;4987478;28;20668;-82
2024/01/07 11:59:36;;;;;;;30.92;12.50;;;;;;;;;;4980085;28;20081;-82
2024/01/07 12:02:06;;;;;;;17.13;7.65;;;;;;;;;;4982882;28;20030;-82
2024/01/07 12:04:32;;;;;;;10.75;5.32;;;;;;;;;;4962888;28;20096;-82
2024/01/07 12:06:58;;;;;;;6.13;4.32;;;;;;;;;;4978893;28;20023;-82
2024/01/07 12:09:24;;;;;;;7.65;3.70;;;;;;;;;;4984108;28;20045;-82
2024/01/07 12:11:50;;;;;;;5.13;3.70;;;;;;;;;;4969486;28;20039;-81
2024/01/07 12:14:17;;;;;;;5.80;3.55;;;;;;;;;;4984807;28;20074;-81
2024/01/07 12:16:42;;;;;;;5.72;3.63;;;;;;;;;;4980715;28;20027;-82
2024/01/07 12:19:09;;;;;;;5.53;3.53;;;;;;;;;;4983006;28;20037;-83
2024/01/07 12:21:35;;;;;;;5.72;3.80;;;;;;;;;;4978647;28;20035;-82
2024/01/07 12:24:01;;;;;;;5.40;3.63;;;;;;;;;;4979639;28;20039;-81
2024/01/07 12:26:27;;;;;;;6.22;3.70;;;;;;;;;;4962687;28;20040;-82
2024/01/07 12:28:55;;;;;;;5.22;3.60;;;;;;;;;;4981320;28;20030;-82
2024/01/07 12:31:21;;;;;;;5.93;3.97;;;;;;;;;;4983720;28;20030;-83
2024/01/07 12:33:47;;;;;;;6.13;3.97;;;;;;;;;;4969412;28;20123;-83
2024/01/07 12:36:12;;;;;;;6.97;4.10;;;;;;;;;;4988243;28;20050;-83
2024/01/07 12:38:38;;;;;;;6.65;4.20;;;;;;;;;;4981970;28;20609;-83
2024/01/07 12:41:04;;;;;;;6.53;4.45;;;;;;;;;;4979860;28;20026;-83
2024/01/07 12:43:30;;;;;;;10.38;5.35;;;;;;;;;;4976134;28;20114;-83
2024/01/07 12:45:56;;;;;;;7.68;5.03;;;;;;;;;;4967392;28;20098;-82
2024/01/07 12:48:22;;;;;;;7.47;4.63;;;;;;;;;;4973600;28;20047;-82
2024/01/07 12:50:48;;;;;;;11.45;5.50;;;;;;;;;;4968175;28;20038;-83
2024/01/07 12:53:14;;;;;;;10.30;6.22;;;;;;;;;;4966141;28;20130;-83
2024/01/07 12:55:40;;;;;;;12.50;6.78;;;;;;;;;;4983836;28;20073;-81
2024/01/07 12:58:05;;;;;;;7.60;5.00;;;;;;;;;;4987664;28;20037;-80
2024/01/07 13:00:31;;;;;;;10.60;6.57;;;;;;;;;;4965813;28;20053;-82
2024/01/07 13:02:57;;;;;;;12.02;6.88;;;;;;;;;;4989066;28;20189;-79
2024/01/07 13:05:23;;;;;;;11.05;6.25;;;;;;;;;;4988865;28;20508;-80
2024/01/07 13:07:50;;;;;;;12.82;6.90;;;;;;;;;;4988329;28;20027;-80
2024/01/07 13:10:15;;;;;;;10.95;6.80;;;;;;;;;;4979832;28;20098;-80
2024/01/07 13:12:41;;;;;;;11.13;6.60;;;;;;;;;;4995557;28;20053;-81
2024/01/07 13:15:07;;;;;;;10.73;6.38;;;;;;;;;;4982809;28;20017;-82
2024/01/07 13:17:32;;;;;;;9.45;5.82;;;;;;;;;;4992907;28;20037;-81
2024/01/07 13:20:01;;;;;;;21.10;12.35;;;;;;;;;;4990829;28;20407;-80
2024/01/07 13:22:27;;;;;;;37.80;13.73;;;;;;;;;;4971917;28;20038;-83
2024/01/07 13:24:54;;;;;;;36.55;15.15;;;;;;;;;;4987247;28;20094;-83
2024/01/07 13:27:23;;;;;;;36.10;14.27;;;;;;;;;;4975640;28;20140;-85
2024/01/07 13:29:48;;;;;;;19.67;9.88;;;;;;;;;;4968797;28;20035;-82
2024/01/07 13:32:17;;;;;;;12.48;7.47;;;;;;;;;;4986186;28;20033;-79
2024/01/07 13:34:43;;;;;;;25.25;10.80;;;;;;;;;;4983601;28;20043;-81
2024/01/07 13:37:10;;;;;;;28.38;12.15;;;;;;;;;;4985767;28;20481;-80
2024/01/07 13:39:35;;;;;;;20.88;10.85;;;;;;;;;;4971888;28;20054;-81
2024/01/07 13:42:01;;;;;;;10.95;6.80;;;;;;;;;;4986569;28;20443;-80
2024/01/07 13:44:27;;;;;;;12.02;6.30;;;;;;;;;;4982030;28;20061;-80
2024/01/07 13:46:53;;;;;;;12.88;8.23;;;;;;;;;;4982073;28;20128;-79
2024/01/07 13:49:18;;;;;;;8.10;5.57;;;;;;;;;;4985818;28;20045;-79
2024/01/07 13:51:44;;;;;;;11.15;6.97;;;;;;;;;;4972135;28;20027;-79
2024/01/07 13:54:14;;;;;;;10.02;6.32;;;;;;;;;;4965617;28;20113;-80
2024/01/07 13:56:44;;;;;;;8.35;5.35;;;;;;;;;;4980905;28;20064;-81
2024/01/07 13:59:10;;;;;;;9.48;6.05;;;;;;;;;;4987165;28;20030;-82
2024/01/07 14:01:36;;;;;;;9.75;6.32;;;;;;;;;;4985265;28;20030;-79
2024/01/07 14:04:05;;;;;;;8.02;4.50;;;;;;;;;;4982103;28;20038;-80
2024/01/07 14:06:31;;;;;;;11.60;6.63;;;;;;;;;;4983111;28;20096;-79
2024/01/07 14:08:58;;;;;;;8.27;4.95;;;;;;;;;;4983059;28;20042;-80
2024/01/07 14:11:24;;;;;;;8.23;4.60;;;;;;;;;;4972095;28;20519;-79
2024/01/07 14:13:49;;;;;;;7.03;4.63;;;;;;;;;;4966986;28;20034;-80
2024/01/07 14:16:15;;;;;;;12.48;7.68;;;;;;;;;;4988614;28;20057;-80
2024/01/07 14:18:40;;;;;;;8.88;4.97;;;;;;;;;;4985509;28;20054;-81
2024/01/07 14:21:06;;;;;;;7.13;4.10;;;;;;;;;;4987145;28;20416;-80
2024/01/07 14:23:33;;;;;;;7.65;4.85;;;;;;;;;;4985912;28;20055;-79
2024/01/07 14:25:59;;;;;;;5.85;3.70;;;;;;;;;;4977757;28;20619;-79
2024/01/07 14:28:25;;;;;;;7.50;5.25;;;;;;;;;;4982707;28;20062;-79
2024/01/07 14:30:50;;;;;;;4.65;3.33;;;;;;;;;;4986647;28;20038;-81
2024/01/07 14:33:16;;;;;;;5.72;3.33;;;;;;;;;;4987690;28;20030;-80
2024/01/07 14:35:41;;;;;;;8.60;5.05;;;;;;;;;;4985524;28;20443;-81